createdAt,value
2018-01-01T00:01:22.240Z,52.42
2018-01-01T00:03:50.206Z,53.22
2018-01-01T00:06:18.172Z,55.35
2018-01-01T00:08:46.149Z,48.00
2018-01-01T00:11:14.141Z,53.92
2018-01-01T00:13:42.129Z,55.78
2018-01-01T00:16:10.859Z,54.83
2018-01-01T00:18:38.887Z,52.17
2018-01-01T00:21:07.618Z,66.93
2018-01-01T00:23:36.346Z,55.03
2018-01-01T00:26:04.333Z,55.65
2018-01-01T00:28:33.062Z,53.03
2018-01-01T00:31:01.066Z,54.42
2018-01-01T00:33:29.097Z,54.17
2018-01-01T00:35:57.106Z,55.65
2018-01-01T00:38:25.090Z,52.70
2018-01-01T00:40:53.837Z,52.00
2018-01-01T00:43:21.826Z,46.40
2018-01-01T00:45:49.822Z,54.05
2018-01-01T00:48:17.829Z,46.28
2018-01-01T00:50:45.817Z,52.67
2018-01-01T00:53:13.829Z,56.88
2018-01-01T00:55:42.566Z,53.75
2018-01-01T00:58:10.630Z,55.53
2018-01-01T01:00:38.605Z,53.38
2018-01-01T01:03:06.592Z,50.05
2018-01-01T01:05:34.574Z,58.58
2018-01-01T01:08:02.550Z,57.25
2018-01-01T01:10:31.314Z,57.85
2018-01-01T01:12:59.290Z,59.97
2018-01-01T01:15:27.269Z,55.60
2018-01-01T01:17:55.246Z,52.33
2018-01-01T01:20:24.010Z,54.03
2018-01-01T01:22:51.994Z,51.45
2018-01-01T01:25:19.975Z,57.13
2018-01-01T01:27:48.745Z,59.08
2018-01-01T01:30:16.722Z,55.78
2018-01-01T01:32:45.468Z,57.08
2018-01-01T01:35:13.473Z,58.72
2018-01-01T01:37:41.439Z,55.70
2018-01-01T01:40:09.444Z,56.28
2018-01-01T01:42:37.442Z,64.15
2018-01-01T01:45:05.446Z,51.63
2018-01-01T01:47:33.458Z,52.45
2018-01-01T01:50:01.453Z,58.25
2018-01-01T01:52:29.421Z,58.67
2018-01-01T01:54:57.401Z,59.58
2018-01-01T01:57:25.363Z,66.70
2018-01-01T01:59:53.362Z,64.97
2018-01-01T02:02:21.374Z,62.20
2018-01-01T02:04:49.377Z,58.83
2018-01-01T02:07:17.350Z,59.65
2018-01-01T02:09:45.323Z,58.00
2018-01-01T02:12:13.330Z,60.63
2018-01-01T02:14:42.089Z,58.35
2018-01-01T02:17:10.081Z,59.88
2018-01-01T02:19:38.818Z,61.67
2018-01-01T02:22:06.821Z,61.28
2018-01-01T02:24:34.810Z,57.05
2018-01-01T02:27:03.558Z,55.78
2018-01-01T02:29:31.573Z,57.90
2018-01-01T02:31:59.670Z,64.85
2018-01-01T02:34:27.659Z,54.00
2018-01-01T02:36:55.659Z,59.10
2018-01-01T02:39:23.626Z,55.22
2018-01-01T02:41:51.611Z,59.05
2018-01-01T02:44:20.359Z,63.42
2018-01-01T02:46:48.330Z,59.58
2018-01-01T02:49:16.308Z,61.15
2018-01-01T02:51:44.307Z,62.95
2018-01-01T02:54:13.050Z,57.97
2018-01-01T02:56:41.017Z,67.03
2018-01-01T02:59:09.039Z,64.55
2018-01-01T03:01:37.793Z,54.35
2018-01-01T03:04:05.835Z,70.57
2018-01-01T03:06:33.808Z,63.80
2018-01-01T03:09:01.811Z,67.93
2018-01-01T03:11:29.778Z,65.62
2018-01-01T03:13:58.042Z,62.08
2018-01-01T03:16:26.114Z,65.12
2018-01-01T03:18:54.109Z,65.87
2018-01-01T03:21:22.866Z,70.18
2018-01-01T03:23:50.851Z,65.43
2018-01-01T03:26:18.810Z,78.40
2018-01-01T03:28:46.778Z,67.68
2018-01-01T03:31:14.769Z,79.00
2018-01-01T03:33:43.509Z,74.50
2018-01-01T03:36:11.512Z,61.80
2018-01-01T03:38:39.495Z,84.25
2018-01-01T03:41:07.470Z,73.00
2018-01-01T03:43:36.231Z,78.68
2018-01-01T03:46:04.223Z,73.93
2018-01-01T03:48:33.013Z,80.90
2018-01-01T03:51:01.790Z,82.95
2018-01-01T03:53:29.759Z,74.18
2018-01-01T03:55:58.522Z,73.40
2018-01-01T03:58:26.514Z,83.15
2018-01-01T04:00:55.278Z,87.65
2018-01-01T04:03:23.301Z,80.30
2018-01-01T04:05:51.316Z,77.32
2018-01-01T04:08:19.303Z,86.57
2018-01-01T04:10:47.289Z,80.93
2018-01-01T04:13:16.031Z,79.35
2018-01-01T04:15:44.321Z,75.95
2018-01-01T04:18:16.334Z,86.32
2018-01-01T04:20:44.334Z,80.12
2018-01-01T04:23:12.310Z,75.65
2018-01-01T04:25:40.308Z,75.90
2018-01-01T04:28:08.278Z,69.47
2018-01-01T04:30:36.257Z,74.10
2018-01-01T04:33:05.014Z,73.78
2018-01-01T04:35:33.006Z,79.87
2018-01-01T04:38:01.011Z,74.25
2018-01-01T04:40:28.979Z,82.68
2018-01-01T04:42:56.962Z,71.47
2018-01-01T04:45:24.962Z,86.22
2018-01-01T04:47:52.949Z,67.30
2018-01-01T04:50:20.981Z,67.30
2018-01-01T04:52:48.955Z,67.25
2018-01-01T04:55:16.954Z,83.25
2018-01-01T04:57:44.925Z,83.95
2018-01-01T05:00:12.903Z,74.55
2018-01-01T05:02:41.694Z,77.10
2018-01-01T05:05:10.433Z,85.00
2018-01-01T05:07:38.402Z,82.90
2018-01-01T05:10:06.389Z,83.72
2018-01-01T05:12:34.357Z,89.28
2018-01-01T05:15:02.318Z,96.20
2018-01-01T05:17:30.298Z,98.80
2018-01-01T05:19:58.314Z,97.03
2018-01-01T05:22:26.311Z,97.22
2018-01-01T05:24:54.295Z,90.15
2018-01-01T05:27:22.289Z,95.03
2018-01-01T05:29:50.270Z,106.00
2018-01-01T05:32:19.009Z,101.93
2018-01-01T05:34:46.998Z,108.18
2018-01-01T05:37:15.002Z,111.72
2018-01-01T05:39:43.757Z,106.72
2018-01-01T05:42:11.797Z,115.68
2018-01-01T05:44:39.785Z,106.03
2018-01-01T05:47:07.777Z,112.15
2018-01-01T05:49:35.734Z,119.82
2018-01-01T05:52:03.718Z,100.47
2018-01-01T05:54:31.711Z,95.62
2018-01-01T05:57:00.470Z,109.82
2018-01-01T05:59:28.442Z,99.40
2018-01-01T06:01:56.436Z,111.57
2018-01-01T06:04:25.199Z,99.50
2018-01-01T06:06:53.165Z,95.32
2018-01-01T06:09:21.142Z,101.05
2018-01-01T06:11:49.143Z,93.47
2018-01-01T06:14:17.119Z,99.72
2018-01-01T06:16:45.105Z,96.68
2018-01-01T06:19:13.095Z,99.45
2018-01-01T06:21:41.102Z,102.45
2018-01-01T06:24:09.867Z,103.80
2018-01-01T06:26:37.879Z,104.25
2018-01-01T06:29:05.877Z,104.95
2018-01-01T06:31:33.872Z,95.90
2018-01-01T06:34:01.833Z,94.72
2018-01-01T06:36:29.834Z,97.90
2018-01-01T06:38:58.587Z,95.55
2018-01-01T06:41:26.589Z,103.90
2018-01-01T06:43:55.344Z,93.50
2018-01-01T06:46:23.340Z,98.12
2018-01-01T06:48:52.080Z,96.15
2018-01-01T06:51:20.124Z,87.00
2018-01-01T06:53:48.096Z,88.03
2018-01-01T06:56:16.114Z,89.07
2018-01-01T06:58:44.145Z,91.22
2018-01-01T07:01:12.127Z,108.07
2018-01-01T07:03:40.082Z,87.20
2018-01-01T07:06:08.070Z,90.55
2018-01-01T07:08:36.145Z,97.22
2018-01-01T07:11:04.142Z,91.70
2018-01-01T07:13:32.124Z,90.55
2018-01-01T07:16:00.854Z,94.28
2018-01-01T07:18:28.822Z,87.10
2018-01-01T07:20:57.106Z,91.78
2018-01-01T07:23:25.093Z,94.20
2018-01-01T07:25:53.081Z,85.80
2018-01-01T07:28:21.060Z,87.47
2018-01-01T07:30:49.880Z,88.32
2018-01-01T07:33:17.882Z,81.95
2018-01-01T07:35:45.859Z,94.20
2018-01-01T07:38:13.823Z,95.47
2018-01-01T07:40:41.810Z,84.90
2018-01-01T07:43:09.798Z,84.75
2018-01-01T07:45:38.562Z,97.37
2018-01-01T07:48:06.526Z,95.43
2018-01-01T07:50:34.493Z,110.93
2018-01-01T07:53:02.471Z,104.57
2018-01-01T07:55:30.456Z,117.18
2018-01-01T07:57:59.216Z,100.93
2018-01-01T08:00:27.192Z,97.55
2018-01-01T08:02:55.191Z,81.25
2018-01-01T08:05:23.941Z,146.10
2018-01-01T08:07:51.915Z,104.25
2018-01-01T08:10:19.892Z,111.05
2018-01-01T08:12:47.881Z,108.93
2018-01-01T08:15:16.614Z,130.05
2018-01-01T08:17:44.590Z,118.45
2018-01-01T08:20:12.581Z,103.50
2018-01-01T08:22:40.574Z,105.32
2018-01-01T08:25:09.299Z,108.53
2018-01-01T08:27:37.273Z,148.98
2018-01-01T08:30:05.268Z,129.98
2018-01-01T08:32:33.238Z,145.62
2018-01-01T08:35:01.246Z,127.55
2018-01-01T08:37:29.998Z,106.35
2018-01-01T08:39:57.981Z,103.38
2018-01-01T08:42:25.985Z,111.25
2018-01-01T08:44:53.959Z,90.70
2018-01-01T08:47:21.954Z,88.32
2018-01-01T08:49:49.921Z,78.87
2018-01-01T08:52:17.886Z,78.53
2018-01-01T08:54:45.838Z,77.30
2018-01-01T08:57:13.830Z,77.37
2018-01-01T08:59:41.807Z,78.50
2018-01-01T09:02:09.810Z,72.20
2018-01-01T09:04:38.554Z,73.47
2018-01-01T09:07:07.302Z,73.87
2018-01-01T09:09:35.306Z,71.78
2018-01-01T09:12:03.310Z,70.03
2018-01-01T09:14:31.634Z,71.05
2018-01-01T09:16:59.657Z,70.43
2018-01-01T09:19:27.625Z,84.30
2018-01-01T09:21:55.633Z,78.93
2018-01-01T09:24:23.649Z,66.25
2018-01-01T09:26:51.618Z,100.45
2018-01-01T09:29:19.614Z,78.18
2018-01-01T09:31:48.363Z,77.03
2018-01-01T09:34:16.338Z,71.65
2018-01-01T09:36:44.360Z,71.43
2018-01-01T09:39:12.419Z,81.10
2018-01-01T09:41:41.187Z,96.50
2018-01-01T09:44:09.171Z,90.65
2018-01-01T09:46:37.930Z,71.45
2018-01-01T09:49:05.946Z,79.15
2018-01-01T09:51:33.927Z,74.87
2018-01-01T09:54:01.919Z,79.90
2018-01-01T09:56:29.902Z,86.18
2018-01-01T09:58:57.907Z,85.05
2018-01-01T10:01:26.697Z,76.30
2018-01-01T10:03:55.470Z,84.47
2018-01-01T10:06:23.458Z,70.45
2018-01-01T10:08:52.210Z,65.55
2018-01-01T10:11:20.193Z,73.40
2018-01-01T10:13:48.207Z,82.15
2018-01-01T10:16:16.209Z,80.50
2018-01-01T10:18:44.198Z,76.87
2018-01-01T10:21:12.213Z,77.95
2018-01-01T10:23:40.193Z,97.22
2018-01-01T10:26:08.223Z,81.97
2018-01-01T10:28:36.962Z,82.32
2018-01-01T10:31:04.945Z,83.80
2018-01-01T10:33:32.930Z,82.15
2018-01-01T10:36:00.914Z,80.68
2018-01-01T10:38:29.702Z,77.28
2018-01-01T10:40:58.451Z,87.15
2018-01-01T10:43:26.450Z,87.45
2018-01-01T10:45:54.431Z,75.95
2018-01-01T10:48:23.163Z,56.35
2018-01-01T10:50:51.168Z,66.30
2018-01-01T10:53:19.157Z,61.30
2018-01-01T10:55:47.910Z,60.72
2018-01-01T10:58:15.913Z,55.97
2018-01-01T11:00:44.663Z,57.88
2018-01-01T11:03:12.698Z,57.92
2018-01-01T11:05:40.694Z,66.57
2018-01-01T11:08:08.686Z,65.10
2018-01-01T11:10:36.678Z,59.58
2018-01-01T11:13:05.411Z,70.03
2018-01-01T11:15:33.776Z,66.85
2018-01-01T11:18:01.746Z,53.10
2018-01-01T11:20:29.718Z,54.22
2018-01-01T11:22:57.714Z,53.92
2018-01-01T11:25:25.698Z,57.35
2018-01-01T11:27:53.711Z,56.08
2018-01-01T11:30:21.702Z,52.47
2018-01-01T11:32:49.670Z,51.17
2018-01-01T11:35:17.670Z,46.88
2018-01-01T11:37:45.651Z,42.05
2018-01-01T11:40:13.661Z,42.80
2018-01-01T11:42:41.662Z,44.10
2018-01-01T11:45:09.634Z,38.00
2018-01-01T11:47:37.638Z,41.40
2018-01-01T11:50:06.429Z,38.90
2018-01-01T11:52:35.191Z,40.95
2018-01-01T11:55:03.174Z,34.13
2018-01-01T11:57:31.922Z,40.60
2018-01-01T11:59:59.914Z,37.10
2018-01-01T12:02:27.944Z,52.25
2018-01-01T12:04:55.973Z,41.28
2018-01-01T12:07:24.712Z,43.63
2018-01-01T12:09:52.690Z,35.97
2018-01-01T12:12:20.674Z,48.20
2018-01-01T12:14:48.677Z,39.13
2018-01-01T12:17:17.391Z,30.23
2018-01-01T12:19:45.377Z,29.25
2018-01-01T12:22:13.370Z,26.98
2018-01-01T12:24:41.353Z,24.02
2018-01-01T12:27:09.366Z,26.95
2018-01-01T12:29:37.339Z,29.48
2018-01-01T12:32:05.303Z,32.17
2018-01-01T12:34:33.297Z,48.35
2018-01-01T12:37:01.298Z,33.38
2018-01-01T12:39:29.302Z,32.63
2018-01-01T12:41:57.274Z,80.03
2018-01-01T12:44:25.276Z,65.53
2018-01-01T12:46:53.265Z,55.15
2018-01-01T12:49:21.262Z,41.10
2018-01-01T12:51:50.000Z,29.12
2018-01-01T12:54:18.006Z,27.87
2018-01-01T12:56:46.009Z,27.10
2018-01-01T12:59:13.970Z,24.55
2018-01-01T13:01:41.947Z,25.05
2018-01-01T13:04:09.968Z,23.02
2018-01-01T13:06:37.965Z,23.02
2018-01-01T13:09:06.766Z,23.02
2018-01-01T13:11:34.746Z,27.25
2018-01-01T13:14:02.765Z,24.58
2018-01-01T13:16:30.765Z,27.10
2018-01-01T13:18:58.755Z,23.00
2018-01-01T13:21:26.759Z,22.10
2018-01-01T13:23:54.730Z,26.40
2018-01-01T13:26:22.726Z,25.30
2018-01-01T13:28:50.721Z,26.30
2018-01-01T13:31:18.712Z,21.37
2018-01-01T13:33:46.686Z,23.23
2018-01-01T13:36:14.691Z,24.27
2018-01-01T13:38:42.662Z,24.75
2018-01-01T13:41:10.630Z,24.08
2018-01-01T13:43:38.673Z,22.95
2018-01-01T13:46:06.651Z,24.12
2018-01-01T13:48:34.617Z,21.75
2018-01-01T13:51:02.620Z,21.75
2018-01-01T13:53:31.355Z,23.40
2018-01-01T13:55:59.339Z,22.75
2018-01-01T13:58:27.328Z,24.20
2018-01-01T14:00:55.299Z,26.02
2018-01-01T14:03:23.271Z,25.48
2018-01-01T14:05:51.262Z,32.53
2018-01-01T14:08:20.065Z,32.70
2018-01-01T14:10:48.085Z,35.38
2018-01-01T14:13:16.124Z,33.50
2018-01-01T14:15:44.123Z,38.13
2018-01-01T14:18:12.121Z,39.75
2018-01-01T14:20:40.911Z,41.00
2018-01-01T14:23:09.670Z,39.97
2018-01-01T14:25:37.710Z,38.75
2018-01-01T14:28:05.678Z,40.17
2018-01-01T14:30:33.650Z,35.63
2018-01-01T14:33:01.666Z,38.58
2018-01-01T14:35:29.653Z,36.28
2018-01-01T14:37:58.420Z,40.58
2018-01-01T14:40:26.401Z,35.75
2018-01-01T14:42:55.146Z,33.35
2018-01-01T14:45:23.122Z,33.05
2018-01-01T14:47:51.078Z,37.40
2018-01-01T14:50:19.097Z,37.00
2018-01-01T14:52:47.838Z,35.70
2018-01-01T14:55:15.811Z,32.45
2018-01-01T14:57:43.818Z,37.67
2018-01-01T15:00:12.651Z,35.55
2018-01-01T15:02:40.615Z,32.67
2018-01-01T15:05:08.593Z,31.02
2018-01-01T15:07:36.584Z,29.80
2018-01-01T15:10:04.574Z,27.90
2018-01-01T15:12:32.568Z,31.75
2018-01-01T15:15:00.539Z,30.05
2018-01-01T15:17:29.911Z,30.90
2018-01-01T15:19:57.848Z,29.65
2018-01-01T15:22:25.846Z,27.62
2018-01-01T15:24:53.822Z,28.52
2018-01-01T15:27:21.809Z,30.17
2018-01-01T15:29:50.534Z,29.23
2018-01-01T15:32:18.519Z,28.70
2018-01-01T15:34:46.513Z,25.55
2018-01-01T15:37:14.520Z,22.52
2018-01-01T15:39:42.526Z,22.80
2018-01-01T15:42:10.542Z,26.33
2018-01-01T15:44:39.496Z,25.58
2018-01-01T15:47:07.497Z,22.60
2018-01-01T15:49:36.257Z,27.27
2018-01-01T15:52:04.258Z,25.92
2018-01-01T15:54:33.046Z,22.27
2018-01-01T15:57:01.771Z,24.87
2018-01-01T15:59:29.789Z,21.77
2018-01-01T16:01:58.563Z,22.15
2018-01-01T16:04:26.543Z,24.50
2018-01-01T16:06:54.638Z,24.95
2018-01-01T16:09:22.602Z,20.52
2018-01-01T16:11:51.366Z,23.02
2018-01-01T16:14:19.331Z,23.80
2018-01-01T16:16:47.343Z,23.08
2018-01-01T16:19:15.394Z,24.08
2018-01-01T16:21:44.146Z,23.67
2018-01-01T16:24:12.145Z,23.42
2018-01-01T16:26:40.889Z,23.27
2018-01-01T16:29:09.658Z,20.55
2018-01-01T16:31:37.683Z,31.23
2018-01-01T16:34:06.470Z,24.10
2018-01-01T16:36:34.444Z,23.00
2018-01-01T16:39:03.300Z,24.75
2018-01-01T16:41:31.327Z,24.85
2018-01-01T16:43:59.329Z,20.98
2018-01-01T16:46:27.317Z,23.12
2018-01-01T16:48:55.373Z,19.85
2018-01-01T16:51:23.345Z,21.58
2018-01-01T16:53:51.326Z,22.23
2018-01-01T16:56:19.319Z,19.37
2018-01-01T16:58:48.114Z,25.08
2018-01-01T17:01:16.886Z,24.40
2018-01-01T17:03:44.886Z,20.48
2018-01-01T17:06:12.890Z,23.42
2018-01-01T17:08:40.927Z,23.55
2018-01-01T17:11:08.927Z,26.77
2018-01-01T17:13:36.907Z,24.40
2018-01-01T17:16:05.418Z,22.85
2018-01-01T17:18:33.388Z,23.90
2018-01-01T17:21:02.174Z,24.05
2018-01-01T17:23:30.961Z,20.92
2018-01-01T17:25:58.971Z,23.65
2018-01-01T17:28:27.021Z,25.45
2018-01-01T17:30:55.092Z,21.58
2018-01-01T17:33:23.878Z,22.67
2018-01-01T17:35:52.679Z,19.37
2018-01-01T17:38:20.726Z,20.85
2018-01-01T17:40:49.577Z,21.73
2018-01-01T17:43:17.631Z,20.73
2018-01-01T17:45:45.696Z,21.62
2018-01-01T17:48:13.751Z,21.25
2018-01-01T17:50:41.823Z,21.73
2018-01-01T17:53:09.882Z,21.33
2018-01-01T17:55:38.684Z,26.37
2018-01-01T17:58:06.748Z,22.50
2018-01-01T18:00:34.803Z,22.33
2018-01-01T18:03:03.610Z,22.37
2018-01-01T18:05:31.583Z,18.83
2018-01-01T18:07:59.621Z,17.50
2018-01-01T18:10:28.364Z,18.00
2018-01-01T18:12:56.364Z,23.30
2018-01-01T18:15:24.358Z,22.62
2018-01-01T18:17:53.095Z,23.75
2018-01-01T18:20:21.059Z,21.05
2018-01-01T18:22:49.066Z,22.83
2018-01-01T18:25:17.071Z,19.55
2018-01-01T18:27:45.084Z,22.45
2018-01-01T18:30:13.091Z,22.73
2018-01-01T18:32:41.825Z,24.33
2018-01-01T18:35:09.798Z,22.85
2018-01-01T18:37:37.782Z,31.42
2018-01-01T18:40:05.801Z,27.10
2018-01-01T18:42:33.809Z,25.65
2018-01-01T18:45:01.794Z,30.12
2018-01-01T18:47:29.813Z,30.08
2018-01-01T18:49:57.783Z,29.90
2018-01-01T18:52:25.758Z,29.63
2018-01-01T18:54:53.743Z,32.10
2018-01-01T18:57:21.716Z,30.10
2018-01-01T18:59:49.718Z,28.77
2018-01-01T19:02:17.702Z,30.75
2018-01-01T19:04:46.461Z,29.65
2018-01-01T19:07:14.504Z,32.05
2018-01-01T19:09:42.489Z,33.95
2018-01-01T19:12:10.465Z,28.92
2018-01-01T19:14:39.787Z,35.78
2018-01-01T19:17:07.885Z,30.88
2018-01-01T19:19:35.867Z,32.40
2018-01-01T19:22:03.862Z,28.75
2018-01-01T19:24:31.854Z,29.37
2018-01-01T19:26:59.869Z,34.45
2018-01-01T19:29:27.842Z,35.70
2018-01-01T19:31:55.833Z,30.20
2018-01-01T19:34:23.839Z,36.30
2018-01-01T19:36:51.871Z,38.85
2018-01-01T19:39:19.846Z,32.42
2018-01-01T19:41:47.907Z,30.27
2018-01-01T19:44:15.910Z,31.70
2018-01-01T19:46:43.895Z,33.83
2018-01-01T19:49:11.903Z,30.80
2018-01-01T19:51:39.882Z,30.90
2018-01-01T19:54:07.862Z,28.83
2018-01-01T19:56:35.894Z,35.80
2018-01-01T19:59:04.018Z,28.35
2018-01-01T20:01:32.003Z,32.67
2018-01-01T20:04:00.018Z,31.85
2018-01-01T20:06:28.045Z,28.00
2018-01-01T20:08:56.038Z,33.78
2018-01-01T20:11:24.791Z,27.62
2018-01-01T20:13:52.757Z,34.05
2018-01-01T20:16:20.753Z,33.95
2018-01-01T20:18:49.486Z,30.62
2018-01-01T20:21:17.573Z,31.95
2018-01-01T20:23:45.571Z,30.30
2018-01-01T20:26:13.566Z,30.25
2018-01-01T20:28:41.612Z,33.00
2018-01-01T20:31:09.622Z,31.80
2018-01-01T20:33:37.606Z,30.60
2018-01-01T20:36:05.614Z,37.35
2018-01-01T20:38:33.602Z,30.90
2018-01-01T20:41:02.436Z,34.67
2018-01-01T20:43:30.434Z,37.13
2018-01-01T20:45:58.431Z,34.85
2018-01-01T20:48:27.211Z,37.15
2018-01-01T20:50:55.930Z,29.00
2018-01-01T20:53:23.906Z,33.03
2018-01-01T20:55:51.904Z,32.67
2018-01-01T20:58:19.873Z,33.70
2018-01-01T21:00:47.866Z,35.20
2018-01-01T21:03:15.851Z,38.78
2018-01-01T21:05:44.586Z,48.13
2018-01-01T21:08:12.578Z,37.72
2018-01-01T21:10:40.547Z,45.63
2018-01-01T21:13:08.587Z,43.83
2018-01-01T21:15:36.630Z,50.55
2018-01-01T21:18:04.635Z,47.72
2018-01-01T21:20:32.600Z,47.25
2018-01-01T21:23:00.598Z,51.88
2018-01-01T21:25:29.421Z,47.50
2018-01-01T21:27:58.186Z,49.17
2018-01-01T21:30:26.155Z,46.67
2018-01-01T21:32:54.146Z,46.88
2018-01-01T21:35:22.890Z,46.17
2018-01-01T21:37:50.918Z,44.67
2018-01-01T21:40:18.884Z,41.00
2018-01-01T21:42:46.848Z,43.25
2018-01-01T21:45:14.822Z,42.40
2018-01-01T21:47:42.801Z,41.92
2018-01-01T21:50:10.781Z,38.17
2018-01-01T21:52:38.745Z,49.63
2018-01-01T21:55:06.719Z,45.30
2018-01-01T21:57:34.715Z,44.33
2018-01-01T22:00:02.755Z,46.13
2018-01-01T22:02:30.735Z,45.10
2018-01-01T22:04:58.738Z,50.00
2018-01-01T22:07:26.714Z,47.67
2018-01-01T22:09:55.574Z,52.03
2018-01-01T22:12:23.562Z,42.05
2018-01-01T22:14:51.535Z,41.53
2018-01-01T22:17:19.537Z,46.60
2018-01-01T22:19:47.515Z,42.25
2018-01-01T22:22:15.538Z,49.95
2018-01-01T22:24:43.598Z,62.13
2018-01-01T22:27:11.582Z,48.72
2018-01-01T22:29:39.557Z,50.55
2018-01-01T22:32:07.569Z,50.97
2018-01-01T22:34:35.562Z,47.22
2018-01-01T22:37:03.577Z,52.90
2018-01-01T22:39:32.354Z,52.60
2018-01-01T22:42:01.094Z,50.15
2018-01-01T22:44:29.078Z,48.85
2018-01-01T22:46:57.071Z,47.05
2018-01-01T22:49:25.103Z,50.95
2018-01-01T22:51:53.093Z,46.88
2018-01-01T22:54:21.077Z,43.90
2018-01-01T22:56:49.050Z,47.13
2018-01-01T22:59:17.028Z,43.50
2018-01-01T23:01:45.805Z,41.80
2018-01-01T23:04:13.830Z,46.67
2018-01-01T23:06:41.827Z,45.55
2018-01-01T23:09:09.811Z,44.40
2018-01-01T23:11:37.797Z,48.25
2018-01-01T23:14:06.530Z,42.47
2018-01-01T23:16:35.427Z,49.70
2018-01-01T23:19:03.414Z,45.15
2018-01-01T23:21:31.397Z,48.75
2018-01-01T23:23:59.382Z,45.63
2018-01-01T23:26:28.118Z,41.50
2018-01-01T23:28:56.120Z,43.97
2018-01-01T23:31:24.125Z,43.08
2018-01-01T23:33:52.101Z,43.58
2018-01-01T23:36:20.079Z,50.63
2018-01-01T23:38:48.074Z,47.22
2018-01-01T23:41:16.101Z,46.72
2018-01-01T23:43:44.078Z,43.53
2018-01-01T23:46:12.054Z,46.17
2018-01-01T23:48:40.035Z,46.53
2018-01-01T23:51:08.006Z,45.67
2018-01-01T23:53:36.048Z,42.30
2018-01-01T23:56:04.023Z,44.80
2018-01-01T23:58:32.019Z,47.10
